createdAt,value
2023-04-20T00:01:22.293Z,42.23
2023-04-20T00:03:49.128Z,42.51
2023-04-20T00:06:15.912Z,42.89
2023-04-20T00:08:44.130Z,42.79
2023-04-20T00:11:10.868Z,42.64
2023-04-20T00:13:37.532Z,42.41
2023-04-20T00:16:04.479Z,42.51
2023-04-20T00:18:31.133Z,42.60
2023-04-20T00:20:57.843Z,42.79
2023-04-20T00:23:24.534Z,43.01
2023-04-20T00:25:52.250Z,43.51
2023-04-20T00:28:18.942Z,43.17
2023-04-20T00:30:45.760Z,42.91
2023-04-20T00:33:12.398Z,43.46
2023-04-20T00:35:39.066Z,43.43
2023-04-20T00:38:06.045Z,43.82
2023-04-20T00:40:33.546Z,43.84
2023-04-20T00:43:12.937Z,43.72
2023-04-20T00:45:39.829Z,43.58
2023-04-20T00:48:07.323Z,43.82
2023-04-20T00:50:35.174Z,43.81
2023-04-20T00:53:03.518Z,43.65
2023-04-20T00:55:31.318Z,43.87
2023-04-20T00:57:58.995Z,43.94
2023-04-20T01:00:27.523Z,44.02
2023-04-20T01:02:54.470Z,43.79
2023-04-20T01:05:22.216Z,44.17
2023-04-20T01:07:49.697Z,44.19
2023-04-20T01:10:16.522Z,44.02
2023-04-20T01:12:43.253Z,44.13
2023-04-20T01:15:10.170Z,44.48
2023-04-20T01:17:40.488Z,45.00
2023-04-20T01:20:15.004Z,44.62
2023-04-20T01:22:49.774Z,44.70
2023-04-20T01:25:17.958Z,44.51
2023-04-20T01:27:45.184Z,44.94
2023-04-20T01:30:13.105Z,44.64
2023-04-20T01:32:40.655Z,45.01
2023-04-20T01:35:09.247Z,44.68
2023-04-20T01:37:36.474Z,45.16
2023-04-20T01:40:04.003Z,45.06
2023-04-20T01:42:30.981Z,45.17
2023-04-20T01:44:57.797Z,45.06
2023-04-20T01:47:24.591Z,45.17
2023-04-20T01:49:51.293Z,44.83
2023-04-20T01:52:17.990Z,45.40
2023-04-20T01:54:44.975Z,45.29
2023-04-20T01:57:12.166Z,45.78
2023-04-20T01:59:38.911Z,45.74
2023-04-20T02:02:05.661Z,46.21
2023-04-20T02:04:32.504Z,45.92
2023-04-20T02:06:59.400Z,45.95
2023-04-20T02:09:26.139Z,46.29
2023-04-20T02:11:52.824Z,46.14
2023-04-20T02:14:19.551Z,45.82
2023-04-20T02:16:46.900Z,45.96
2023-04-20T02:19:13.554Z,45.78
2023-04-20T02:21:40.254Z,45.92
2023-04-20T02:24:07.358Z,46.23
2023-04-20T02:26:34.031Z,46.03
2023-04-20T02:29:00.708Z,45.86
2023-04-20T02:31:27.608Z,46.11
2023-04-20T02:33:54.296Z,46.18
2023-04-20T02:36:21.151Z,46.24
2023-04-20T02:38:47.809Z,46.36
2023-04-20T02:41:14.475Z,46.11
2023-04-20T02:43:41.441Z,46.31
2023-04-20T02:46:08.318Z,46.40
2023-04-20T02:48:35.004Z,46.43
2023-04-20T02:51:01.944Z,46.68
2023-04-20T02:53:28.894Z,46.49
2023-04-20T02:55:55.696Z,46.96
2023-04-20T02:58:22.382Z,46.94
2023-04-20T03:00:49.034Z,47.03
2023-04-20T03:03:15.783Z,47.18
2023-04-20T03:05:42.502Z,46.92
2023-04-20T03:08:09.294Z,47.18
2023-04-20T03:10:36.053Z,47.02
2023-04-20T03:13:02.713Z,46.99
2023-04-20T03:15:29.374Z,47.37
2023-04-20T03:17:56.080Z,47.35
2023-04-20T03:20:22.951Z,47.63
2023-04-20T03:22:49.640Z,47.92
2023-04-20T03:25:16.481Z,47.84
2023-04-20T03:27:45.988Z,48.09
2023-04-20T03:30:13.728Z,47.92
2023-04-20T03:32:40.998Z,47.93
2023-04-20T03:35:09.056Z,47.91
2023-04-20T03:37:38.690Z,47.63
2023-04-20T03:40:07.328Z,47.92
2023-04-20T03:42:34.112Z,48.09
2023-04-20T03:45:01.156Z,47.65
2023-04-20T03:47:27.891Z,47.84
2023-04-20T03:49:54.573Z,47.63
2023-04-20T03:52:21.576Z,47.82
2023-04-20T03:54:48.269Z,47.61
2023-04-20T03:57:14.963Z,47.66
2023-04-20T03:59:41.647Z,47.74
2023-04-20T04:02:11.075Z,47.93
2023-04-20T04:04:38.155Z,48.24
2023-04-20T04:07:05.413Z,48.09
2023-04-20T04:09:32.063Z,48.56
2023-04-20T04:11:58.723Z,48.43
2023-04-20T04:14:25.472Z,48.35
2023-04-20T04:16:52.204Z,48.45
2023-04-20T04:19:19.095Z,48.65
2023-04-20T04:21:46.021Z,48.43
2023-04-20T04:24:12.889Z,48.70
2023-04-20T04:26:39.629Z,48.65
2023-04-20T04:29:06.672Z,48.66
2023-04-20T04:31:34.043Z,49.01
2023-04-20T04:34:01.193Z,48.82
2023-04-20T04:36:27.869Z,48.71
2023-04-20T04:38:54.521Z,49.07
2023-04-20T04:41:21.572Z,48.77
2023-04-20T04:43:48.263Z,48.87
2023-04-20T04:46:14.942Z,48.73
2023-04-20T04:48:42.408Z,48.74
2023-04-20T04:51:09.889Z,49.01
2023-04-20T04:53:36.923Z,48.99
2023-04-20T04:56:04.579Z,48.84
2023-04-20T04:58:31.505Z,49.02
2023-04-20T05:00:58.205Z,49.33
2023-04-20T05:03:25.075Z,49.31
2023-04-20T05:05:51.812Z,48.92
2023-04-20T05:08:18.481Z,49.01
2023-04-20T05:10:45.154Z,49.22
2023-04-20T05:13:11.949Z,48.81
2023-04-20T05:15:38.670Z,49.20
2023-04-20T05:18:05.504Z,49.09
2023-04-20T05:20:32.360Z,49.39
2023-04-20T05:22:59.110Z,48.94
2023-04-20T05:25:29.876Z,49.02
2023-04-20T05:27:56.589Z,48.72
2023-04-20T05:30:23.589Z,49.18
2023-04-20T05:32:52.175Z,48.93
2023-04-20T05:35:19.367Z,49.15
2023-04-20T05:37:47.664Z,48.94
2023-04-20T05:40:15.495Z,49.23
2023-04-20T05:42:42.190Z,48.87
2023-04-20T05:45:09.850Z,49.25
2023-04-20T05:47:36.587Z,48.94
2023-04-20T05:50:03.794Z,48.87
2023-04-20T05:52:30.888Z,49.00
2023-04-20T05:54:57.546Z,48.80
2023-04-20T05:57:24.684Z,48.72
2023-04-20T05:59:51.931Z,48.78
2023-04-20T06:02:18.648Z,48.87
2023-04-20T06:04:45.711Z,49.23
2023-04-20T06:07:12.740Z,49.04
2023-04-20T06:09:39.394Z,49.12
2023-04-20T06:12:06.229Z,48.41
2023-04-20T06:14:32.949Z,48.31
2023-04-20T06:17:00.045Z,48.47
2023-04-20T06:19:26.910Z,48.71
2023-04-20T06:21:53.629Z,48.53
2023-04-20T06:24:20.376Z,48.40
2023-04-20T06:26:47.098Z,48.56
2023-04-20T06:29:13.785Z,48.38
2023-04-20T06:31:40.631Z,48.15
2023-04-20T06:34:07.459Z,47.86
2023-04-20T06:36:34.197Z,47.80
2023-04-20T06:39:01.310Z,47.52
2023-04-20T06:41:28.034Z,48.10
2023-04-20T06:43:54.682Z,47.57
2023-04-20T06:46:21.454Z,47.37
2023-04-20T06:48:48.159Z,47.38
2023-04-20T06:51:15.131Z,47.43
2023-04-20T06:53:41.827Z,47.10
2023-04-20T06:56:08.649Z,47.31
2023-04-20T06:58:35.506Z,47.33
2023-04-20T07:01:02.538Z,47.07
2023-04-20T07:03:29.524Z,46.98
2023-04-20T07:05:56.348Z,46.75
2023-04-20T07:08:23.074Z,46.88
2023-04-20T07:10:49.768Z,46.43
2023-04-20T07:13:16.824Z,46.59
2023-04-20T07:15:45.504Z,46.51
2023-04-20T07:18:12.757Z,46.00
2023-04-20T07:20:39.627Z,45.60
2023-04-20T07:23:06.761Z,45.62
2023-04-20T07:25:33.540Z,45.94
2023-04-20T07:28:00.354Z,45.84
2023-04-20T07:30:27.293Z,45.55
2023-04-20T07:32:54.072Z,45.21
2023-04-20T07:35:20.975Z,44.96
2023-04-20T07:37:47.694Z,44.79
2023-04-20T07:40:14.719Z,44.48
2023-04-20T07:42:41.419Z,44.66
2023-04-20T07:45:09.565Z,44.06
2023-04-20T07:47:37.405Z,43.93
2023-04-20T07:50:07.869Z,43.95
2023-04-20T07:52:34.679Z,43.61
2023-04-20T07:55:01.616Z,43.58
2023-04-20T07:57:29.122Z,43.22
2023-04-20T07:59:55.961Z,43.74
2023-04-20T08:02:22.778Z,43.43
2023-04-20T08:04:50.336Z,42.94
2023-04-20T08:07:17.800Z,42.72
2023-04-20T08:09:44.598Z,42.13
2023-04-20T08:12:11.434Z,42.38
2023-04-20T08:14:38.392Z,42.19
2023-04-20T08:17:05.291Z,42.63
2023-04-20T08:19:32.238Z,42.93
2023-04-20T08:22:00.176Z,42.54
2023-04-20T08:24:28.299Z,42.51
2023-04-20T08:26:54.951Z,41.39
2023-04-20T08:29:21.908Z,41.12
2023-04-20T08:31:50.709Z,41.26
2023-04-20T08:34:18.342Z,40.64
2023-04-20T08:36:45.382Z,40.36
2023-04-20T08:39:14.347Z,38.79
2023-04-20T08:41:41.412Z,39.10
2023-04-20T08:44:08.434Z,38.47
2023-04-20T08:46:36.190Z,38.14
2023-04-20T08:49:04.161Z,37.95
2023-04-20T08:51:33.961Z,37.63
2023-04-20T08:54:05.999Z,37.18
2023-04-20T08:56:37.857Z,37.84
2023-04-20T08:59:10.632Z,37.74
2023-04-20T09:01:39.593Z,37.41
2023-04-20T09:04:23.899Z,37.48
2023-04-20T09:06:52.952Z,36.72
2023-04-20T09:09:21.652Z,36.24
2023-04-20T09:11:59.427Z,36.20
2023-04-20T09:14:26.146Z,35.54
2023-04-20T09:16:57.696Z,35.00
2023-04-20T09:19:25.701Z,34.82
2023-04-20T09:21:54.755Z,34.60
2023-04-20T09:24:23.150Z,34.60
2023-04-20T09:26:49.935Z,34.44
2023-04-20T09:29:21.603Z,34.40
2023-04-20T09:31:49.695Z,34.50
2023-04-20T09:34:16.899Z,34.22
2023-04-20T09:36:52.132Z,33.69
2023-04-20T09:39:20.679Z,34.22
2023-04-20T09:41:48.263Z,33.91
2023-04-20T09:44:17.054Z,33.89
2023-04-20T09:46:44.897Z,33.87
2023-04-20T09:49:14.105Z,33.56
2023-04-20T09:51:45.281Z,33.45
2023-04-20T09:54:12.983Z,33.29
2023-04-20T09:56:40.719Z,32.95
2023-04-20T09:59:08.019Z,32.99
2023-04-20T10:01:37.559Z,33.11
2023-04-20T10:04:09.391Z,32.99
2023-04-20T10:06:37.326Z,32.74
2023-04-20T10:09:06.688Z,32.60
2023-04-20T10:11:51.703Z,32.55
2023-04-20T10:14:25.053Z,32.44
2023-04-20T10:17:03.392Z,32.17
2023-04-20T10:19:43.660Z,32.06
2023-04-20T10:22:13.033Z,32.29
2023-04-20T10:24:40.371Z,32.33
2023-04-20T10:27:27.322Z,32.31
2023-04-20T10:29:54.337Z,32.23
2023-04-20T10:32:29.319Z,32.13
2023-04-20T10:35:07.741Z,32.05
2023-04-20T10:37:35.351Z,32.21
2023-04-20T10:40:07.430Z,31.32
2023-04-20T10:42:45.261Z,31.68
2023-04-20T10:45:12.912Z,31.55
2023-04-20T10:47:41.038Z,31.63
2023-04-20T10:50:15.165Z,31.93
2023-04-20T10:52:43.607Z,31.99
2023-04-20T10:55:20.537Z,31.68
2023-04-20T10:57:47.732Z,31.28
2023-04-20T11:00:16.595Z,31.36
2023-04-20T11:03:01.343Z,30.72
2023-04-20T11:05:28.136Z,30.81
2023-04-20T11:07:55.551Z,31.06
2023-04-20T11:10:25.949Z,30.94
2023-04-20T11:12:53.300Z,30.53
2023-04-20T11:15:20.132Z,30.79
2023-04-20T11:17:47.075Z,30.97
2023-04-20T11:20:17.707Z,30.71
2023-04-20T11:22:44.885Z,30.24
2023-04-20T11:25:12.694Z,29.97
2023-04-20T11:27:40.966Z,30.02
2023-04-20T11:30:10.059Z,29.48
2023-04-20T11:32:38.320Z,30.04
2023-04-20T11:35:08.193Z,29.87
2023-04-20T11:37:47.216Z,29.43
2023-04-20T11:40:15.206Z,28.62
2023-04-20T11:42:42.020Z,28.91
2023-04-20T11:45:09.194Z,28.97
2023-04-20T11:47:35.925Z,29.59
2023-04-20T11:50:02.837Z,29.63
2023-04-20T11:52:29.480Z,29.93
2023-04-20T11:54:56.486Z,30.10
2023-04-20T11:57:24.249Z,29.37
2023-04-20T11:59:51.252Z,28.97
2023-04-20T12:02:17.987Z,29.10
2023-04-20T12:04:44.828Z,28.87
2023-04-20T12:07:11.678Z,28.29
2023-04-20T12:09:38.621Z,28.04
2023-04-20T12:12:06.216Z,28.20
2023-04-20T12:14:33.866Z,28.01
2023-04-20T12:17:01.758Z,27.89
2023-04-20T12:19:28.406Z,27.81
2023-04-20T12:21:55.504Z,27.58
2023-04-20T12:24:22.703Z,27.72
2023-04-20T12:26:49.481Z,27.67
2023-04-20T12:29:16.783Z,27.75
2023-04-20T12:31:43.714Z,27.57
2023-04-20T12:34:10.769Z,27.54
2023-04-20T12:36:37.488Z,27.36
2023-04-20T12:39:04.559Z,27.48
2023-04-20T12:41:31.439Z,26.99
2023-04-20T12:43:58.181Z,26.78
2023-04-20T12:46:25.559Z,26.79
2023-04-20T12:48:52.451Z,26.66
2023-04-20T12:51:19.138Z,26.21
2023-04-20T12:53:45.793Z,26.91
2023-04-20T12:56:12.439Z,26.91
2023-04-20T12:58:39.103Z,26.65
2023-04-20T13:01:06.080Z,26.69
2023-04-20T13:03:33.334Z,27.09
2023-04-20T13:06:01.442Z,27.38
2023-04-20T13:08:29.020Z,26.77
2023-04-20T13:11:00.671Z,25.81
2023-04-20T13:13:27.911Z,26.32
2023-04-20T13:15:56.153Z,26.78
2023-04-20T13:18:24.661Z,26.87
2023-04-20T13:20:52.152Z,26.47
2023-04-20T13:23:19.546Z,26.21
2023-04-20T13:25:47.134Z,26.46
2023-04-20T13:28:19.232Z,26.25
2023-04-20T13:30:55.720Z,26.28
2023-04-20T13:33:23.211Z,25.70
2023-04-20T13:35:51.229Z,25.81
2023-04-20T13:38:18.758Z,26.21
2023-04-20T13:40:47.010Z,25.94
2023-04-20T13:43:14.391Z,26.10
2023-04-20T13:45:43.215Z,26.10
2023-04-20T13:48:10.468Z,25.78
2023-04-20T13:50:37.410Z,25.41
2023-04-20T13:53:04.769Z,25.23
2023-04-20T13:55:32.462Z,25.18
2023-04-20T13:57:59.549Z,25.79
2023-04-20T14:00:26.563Z,25.90
2023-04-20T14:02:55.407Z,26.20
2023-04-20T14:05:22.911Z,25.93
2023-04-20T14:07:49.766Z,25.95
2023-04-20T14:10:19.728Z,25.63
2023-04-20T14:12:46.815Z,25.49
2023-04-20T14:15:14.144Z,25.52
2023-04-20T14:17:40.834Z,25.55
2023-04-20T14:20:08.527Z,25.45
2023-04-20T14:22:36.765Z,25.36
2023-04-20T14:25:05.134Z,25.76
2023-04-20T14:27:31.820Z,25.44
2023-04-20T14:29:58.907Z,25.57
2023-04-20T14:32:25.748Z,25.22
2023-04-20T14:34:52.424Z,25.01
2023-04-20T14:37:19.254Z,24.95
2023-04-20T14:39:46.012Z,24.91
2023-04-20T14:42:13.462Z,24.98
2023-04-20T14:44:40.091Z,25.04
2023-04-20T14:47:06.884Z,24.30
2023-04-20T14:49:33.500Z,24.45
2023-04-20T14:52:00.138Z,24.35
2023-04-20T14:54:26.803Z,24.17
2023-04-20T14:56:53.466Z,24.13
2023-04-20T14:59:20.383Z,24.14
2023-04-20T15:01:59.223Z,23.71
2023-04-20T15:04:28.934Z,23.67
2023-04-20T15:06:55.893Z,23.67
2023-04-20T15:09:22.533Z,23.81
2023-04-20T15:11:49.277Z,23.85
2023-04-20T15:14:16.089Z,23.71
2023-04-20T15:16:43.082Z,23.77
2023-04-20T15:19:09.725Z,23.65
2023-04-20T15:21:36.439Z,23.38
2023-04-20T15:24:03.441Z,23.46
2023-04-20T15:26:30.168Z,23.75
2023-04-20T15:28:57.694Z,23.46
2023-04-20T15:31:24.403Z,23.36
2023-04-20T15:33:51.181Z,23.64
2023-04-20T15:36:19.401Z,23.72
2023-04-20T15:38:46.376Z,23.73
2023-04-20T15:41:13.089Z,23.55
2023-04-20T15:43:39.999Z,23.40
2023-04-20T15:46:06.704Z,23.36
2023-04-20T15:48:33.508Z,23.28
2023-04-20T15:51:00.353Z,23.30
2023-04-20T15:53:27.613Z,23.53
2023-04-20T15:55:54.307Z,23.66
2023-04-20T15:58:21.423Z,23.60
2023-04-20T16:00:48.386Z,23.28
2023-04-20T16:03:15.399Z,22.96
2023-04-20T16:05:42.223Z,23.31
2023-04-20T16:08:09.290Z,23.06
2023-04-20T16:10:36.138Z,23.07
2023-04-20T16:13:03.880Z,23.07
2023-04-20T16:15:31.458Z,23.22
2023-04-20T16:18:00.153Z,23.25
2023-04-20T16:20:26.958Z,23.07
2023-04-20T16:22:53.661Z,23.08
2023-04-20T16:25:23.165Z,22.83
2023-04-20T16:27:51.608Z,23.05
2023-04-20T16:30:18.888Z,23.11
2023-04-20T16:32:45.869Z,23.16
2023-04-20T16:35:12.654Z,23.56
2023-04-20T16:37:39.362Z,23.63
2023-04-20T16:40:06.968Z,23.98
2023-04-20T16:42:34.543Z,23.88
2023-04-20T16:45:01.613Z,24.08
2023-04-20T16:47:28.297Z,24.09
2023-04-20T16:49:55.040Z,24.23
2023-04-20T16:52:21.768Z,24.37
2023-04-20T16:54:48.614Z,24.47
2023-04-20T16:57:15.642Z,24.53
2023-04-20T16:59:44.638Z,24.57
2023-04-20T17:02:12.621Z,24.54
2023-04-20T17:04:39.696Z,24.44
2023-04-20T17:07:06.424Z,24.78
2023-04-20T17:09:33.263Z,24.72
2023-04-20T17:12:00.145Z,24.65
2023-04-20T17:14:27.256Z,24.72
2023-04-20T17:16:55.007Z,24.64
2023-04-20T17:19:22.047Z,24.67
2023-04-20T17:21:49.095Z,24.63
2023-04-20T17:24:16.169Z,24.55
2023-04-20T17:26:43.041Z,24.67
2023-04-20T17:29:09.868Z,24.74
2023-04-20T17:31:36.660Z,24.62
2023-04-20T17:34:03.498Z,24.92
2023-04-20T17:36:30.194Z,24.88
2023-04-20T17:38:56.850Z,24.79
2023-04-20T17:41:23.512Z,24.98
2023-04-20T17:43:51.469Z,25.04
2023-04-20T17:46:18.668Z,25.31
2023-04-20T17:48:45.623Z,25.14
2023-04-20T17:51:15.520Z,25.17
2023-04-20T17:53:42.408Z,25.32
2023-04-20T17:56:09.343Z,25.38
2023-04-20T17:58:36.018Z,25.46
2023-04-20T18:01:03.234Z,25.51
2023-04-20T18:03:30.243Z,25.56
2023-04-20T18:05:57.024Z,25.72
2023-04-20T18:08:23.765Z,25.61
2023-04-20T18:10:50.532Z,25.75
2023-04-20T18:13:17.220Z,25.69
2023-04-20T18:15:44.040Z,25.65
2023-04-20T18:18:10.826Z,25.70
2023-04-20T18:20:37.554Z,25.89
2023-04-20T18:23:04.519Z,25.92
2023-04-20T18:25:31.434Z,25.75
2023-04-20T18:27:58.093Z,25.88
2023-04-20T18:30:25.231Z,25.89
2023-04-20T18:32:51.948Z,25.94
2023-04-20T18:35:19.470Z,26.12
2023-04-20T18:37:46.581Z,25.96
2023-04-20T18:40:15.958Z,26.18
2023-04-20T18:42:43.028Z,26.37
2023-04-20T18:45:10.097Z,26.27
2023-04-20T18:47:36.807Z,26.28
2023-04-20T18:50:03.721Z,26.30
2023-04-20T18:52:34.186Z,26.39
2023-04-20T18:55:01.927Z,26.42
2023-04-20T18:57:29.148Z,26.46
2023-04-20T18:59:56.539Z,26.53
2023-04-20T19:02:23.691Z,26.64
2023-04-20T19:04:53.261Z,26.75
2023-04-20T19:07:20.684Z,27.12
2023-04-20T19:09:47.364Z,26.81
2023-04-20T19:12:14.148Z,27.13
2023-04-20T19:14:41.068Z,27.03
2023-04-20T19:17:08.203Z,27.11
2023-04-20T19:19:35.060Z,27.23
2023-04-20T19:22:03.824Z,27.54
2023-04-20T19:24:32.182Z,27.61
2023-04-20T19:26:59.284Z,27.68
2023-04-20T19:29:26.080Z,27.83
2023-04-20T19:31:52.883Z,27.99
2023-04-20T19:34:19.673Z,28.31
2023-04-20T19:36:46.730Z,28.13
2023-04-20T19:39:13.893Z,28.35
2023-04-20T19:41:40.610Z,28.68
2023-04-20T19:44:09.947Z,29.07
2023-04-20T19:46:38.708Z,29.04
2023-04-20T19:49:05.939Z,29.26
2023-04-20T19:51:33.472Z,29.35
2023-04-20T19:54:01.252Z,29.38
2023-04-20T19:56:28.177Z,29.79
2023-04-20T19:58:54.887Z,29.45
2023-04-20T20:01:21.715Z,30.13
2023-04-20T20:03:48.684Z,29.86
2023-04-20T20:06:16.468Z,29.96
2023-04-20T20:08:43.213Z,29.96
2023-04-20T20:11:09.966Z,30.32
2023-04-20T20:13:36.833Z,30.45
2023-04-20T20:16:03.871Z,30.46
2023-04-20T20:18:31.182Z,30.67
2023-04-20T20:20:57.910Z,30.80
2023-04-20T20:23:24.576Z,30.69
2023-04-20T20:25:51.997Z,31.10
2023-04-20T20:28:18.762Z,31.08
2023-04-20T20:30:45.854Z,31.32
2023-04-20T20:33:13.001Z,31.24
2023-04-20T20:35:39.990Z,30.96
2023-04-20T20:38:07.954Z,31.07
2023-04-20T20:40:35.619Z,31.04
2023-04-20T20:43:02.715Z,31.57
2023-04-20T20:45:30.494Z,31.63
2023-04-20T20:47:58.077Z,31.34
2023-04-20T20:50:26.463Z,31.53
2023-04-20T20:52:53.198Z,31.72
2023-04-20T20:55:19.969Z,31.67
2023-04-20T20:57:46.761Z,32.11
2023-04-20T21:00:14.005Z,32.08
2023-04-20T21:02:40.848Z,32.40
2023-04-20T21:05:08.047Z,32.56
2023-04-20T21:07:35.165Z,32.28
2023-04-20T21:10:02.038Z,32.66
2023-04-20T21:12:28.753Z,32.34
2023-04-20T21:14:55.711Z,32.48
2023-04-20T21:17:22.441Z,32.97
2023-04-20T21:19:49.113Z,32.59
2023-04-20T21:22:15.790Z,33.23
2023-04-20T21:24:42.456Z,33.08
2023-04-20T21:27:09.188Z,33.13
2023-04-20T21:29:35.834Z,33.20
2023-04-20T21:32:02.629Z,33.79
2023-04-20T21:34:29.483Z,33.75
2023-04-20T21:37:03.456Z,34.40
2023-04-20T21:39:31.023Z,34.25
2023-04-20T21:41:57.730Z,34.25
2023-04-20T21:44:24.639Z,34.60
2023-04-20T21:46:51.371Z,34.73
2023-04-20T21:49:18.435Z,34.24
2023-04-20T21:51:45.761Z,34.88
2023-04-20T21:54:12.507Z,35.19
2023-04-20T21:56:39.202Z,34.45
2023-04-20T21:59:05.975Z,34.92
2023-04-20T22:01:32.773Z,35.08
2023-04-20T22:03:59.635Z,34.66
2023-04-20T22:06:26.918Z,35.04
2023-04-20T22:08:53.925Z,35.04
2023-04-20T22:11:21.185Z,35.08
2023-04-20T22:13:47.841Z,34.76
2023-04-20T22:16:14.569Z,35.37
2023-04-20T22:18:42.297Z,35.05
2023-04-20T22:21:08.964Z,35.24
2023-04-20T22:23:36.256Z,35.38
2023-04-20T22:26:02.974Z,35.52
2023-04-20T22:28:29.635Z,35.62
2023-04-20T22:30:56.808Z,35.39
2023-04-20T22:33:23.491Z,35.36
2023-04-20T22:35:50.563Z,35.97
2023-04-20T22:38:17.329Z,36.07
2023-04-20T22:40:44.143Z,35.77
2023-04-20T22:43:11.430Z,36.03
2023-04-20T22:45:38.079Z,35.65
2023-04-20T22:48:05.075Z,35.59
2023-04-20T22:50:31.839Z,36.47
2023-04-20T22:52:58.521Z,36.12
2023-04-20T22:55:25.546Z,36.79
2023-04-20T22:57:52.390Z,36.61
2023-04-20T23:00:19.176Z,36.78
2023-04-20T23:02:45.932Z,36.91
2023-04-20T23:05:12.755Z,36.69
2023-04-20T23:07:39.610Z,36.79
2023-04-20T23:10:07.139Z,36.96
2023-04-20T23:12:33.842Z,37.21
2023-04-20T23:15:03.912Z,37.16
2023-04-20T23:17:30.857Z,37.64
2023-04-20T23:19:57.724Z,37.78
2023-04-20T23:22:24.679Z,37.72
2023-04-20T23:24:51.616Z,37.64
2023-04-20T23:27:18.408Z,37.79
2023-04-20T23:29:45.417Z,37.97
2023-04-20T23:32:12.120Z,38.03
2023-04-20T23:34:38.802Z,37.98
2023-04-20T23:37:05.558Z,38.33
2023-04-20T23:39:37.132Z,38.31
2023-04-20T23:42:05.240Z,38.20
2023-04-20T23:44:31.925Z,38.26
2023-04-20T23:46:58.560Z,38.33
2023-04-20T23:49:25.403Z,38.46
2023-04-20T23:51:52.075Z,38.21
2023-04-20T23:54:18.747Z,38.73
2023-04-20T23:56:45.440Z,38.55
2023-04-20T23:59:12.141Z,38.67
